createdAt,value
2023-03-12T00:01:59.748Z,2.35
2023-03-12T00:04:26.701Z,2.35
2023-03-12T00:06:53.235Z,2.47
2023-03-12T00:09:20.090Z,2.10
2023-03-12T00:11:46.726Z,2.22
2023-03-12T00:14:13.381Z,2.35
2023-03-12T00:16:39.936Z,2.30
2023-03-12T00:19:06.544Z,2.35
2023-03-12T00:21:33.127Z,2.60
2023-03-12T00:23:59.736Z,2.88
2023-03-12T00:26:26.343Z,2.70
2023-03-12T00:28:53.671Z,2.50
2023-03-12T00:31:27.561Z,3.33
2023-03-12T00:33:55.223Z,2.83
2023-03-12T00:36:24.988Z,2.80
2023-03-12T00:38:52.591Z,2.92
2023-03-12T00:41:20.068Z,2.80
2023-03-12T00:43:47.663Z,2.55
2023-03-12T00:46:14.732Z,2.40
2023-03-12T00:48:41.448Z,2.88
2023-03-12T00:51:08.010Z,2.88
2023-03-12T00:53:35.488Z,2.75
2023-03-12T00:56:03.228Z,3.65
2023-03-12T00:58:29.782Z,4.25
2023-03-12T01:00:56.377Z,3.70
2023-03-12T01:03:22.921Z,3.70
2023-03-12T01:05:53.979Z,3.83
2023-03-12T01:08:21.616Z,4.30
2023-03-12T01:10:48.194Z,4.03
2023-03-12T01:13:14.809Z,4.57
2023-03-12T01:15:41.393Z,4.25
2023-03-12T01:18:07.963Z,4.18
2023-03-12T01:20:34.891Z,4.20
2023-03-12T01:23:01.498Z,3.90
2023-03-12T01:25:28.121Z,3.80
2023-03-12T01:27:54.674Z,3.35
2023-03-12T01:30:21.164Z,3.20
2023-03-12T01:32:47.725Z,3.80
2023-03-12T01:35:14.486Z,3.38
2023-03-12T01:37:41.085Z,3.65
2023-03-12T01:40:08.000Z,3.75
2023-03-12T01:42:34.539Z,3.20
2023-03-12T01:45:03.522Z,3.15
2023-03-12T01:47:33.585Z,3.53
2023-03-12T01:50:01.338Z,4.03
2023-03-12T01:52:32.458Z,4.35
2023-03-12T01:55:09.349Z,4.60
2023-03-12T01:57:57.631Z,3.75
2023-03-12T02:00:26.928Z,3.63
2023-03-12T02:02:59.778Z,3.50
2023-03-12T02:05:43.602Z,4.15
2023-03-12T02:08:18.555Z,3.22
2023-03-12T02:10:45.869Z,2.90
2023-03-12T02:13:12.919Z,3.50
2023-03-12T02:15:40.313Z,3.50
2023-03-12T02:18:11.393Z,3.72
2023-03-12T02:21:08.184Z,3.20
2023-03-12T02:23:44.583Z,3.13
2023-03-12T02:26:12.207Z,3.45
2023-03-12T02:28:43.908Z,3.55
2023-03-12T02:31:14.265Z,3.35
2023-03-12T02:33:40.806Z,2.65
2023-03-12T02:36:07.585Z,3.08
2023-03-12T02:38:52.529Z,2.78
2023-03-12T02:41:30.009Z,2.83
2023-03-12T02:44:16.846Z,2.78
2023-03-12T02:46:49.569Z,2.28
2023-03-12T02:49:18.135Z,2.53
2023-03-12T02:51:45.950Z,2.85
2023-03-12T02:54:14.178Z,3.30
2023-03-12T02:56:41.478Z,2.10
2023-03-12T02:59:09.385Z,2.25
2023-03-12T03:01:36.017Z,1.95
2023-03-12T03:04:05.636Z,2.25
2023-03-12T03:06:32.859Z,2.25
2023-03-12T03:08:59.581Z,2.00
2023-03-12T03:11:26.427Z,2.17
2023-03-12T03:13:53.923Z,2.10
2023-03-12T03:16:21.930Z,2.13
2023-03-12T03:18:48.647Z,1.63
2023-03-12T03:21:17.105Z,2.03
2023-03-12T03:23:48.337Z,1.63
2023-03-12T03:26:17.928Z,1.90
2023-03-12T03:31:10.303Z,2.45
2023-03-12T03:33:39.111Z,1.98
2023-03-12T03:36:07.309Z,2.13
2023-03-12T03:38:34.856Z,2.10
2023-03-12T03:41:02.553Z,2.00
2023-03-12T03:43:29.524Z,1.67
2023-03-12T03:46:06.192Z,2.20
2023-03-12T03:48:33.533Z,2.95
2023-03-12T03:51:01.875Z,2.15
2023-03-12T03:53:28.554Z,1.95
2023-03-12T03:55:55.208Z,1.80
2023-03-12T03:58:21.739Z,2.55
2023-03-12T04:00:48.354Z,1.70
2023-03-12T04:06:09.781Z,2.33
2023-03-12T04:08:37.255Z,2.40
2023-03-12T04:11:08.823Z,2.08
2023-03-12T04:13:35.546Z,2.28
2023-03-12T04:16:02.142Z,2.53
2023-03-12T04:18:28.824Z,3.30
2023-03-12T04:20:55.630Z,2.60
2023-03-12T04:23:22.125Z,3.13
2023-03-12T04:25:48.649Z,2.13
2023-03-12T04:28:15.195Z,2.42
2023-03-12T04:30:41.790Z,1.70
2023-03-12T04:33:08.498Z,2.67
2023-03-12T04:35:35.188Z,1.80
2023-03-12T04:38:02.350Z,2.35
2023-03-12T04:40:29.058Z,2.97
2023-03-12T04:42:55.723Z,2.60
2023-03-12T04:45:22.328Z,2.88
2023-03-12T04:47:48.901Z,2.42
2023-03-12T04:50:15.431Z,2.28
2023-03-12T04:52:41.958Z,2.47
2023-03-12T04:55:09.271Z,2.30
2023-03-12T04:57:36.040Z,1.73
2023-03-12T05:00:05.368Z,1.95
2023-03-12T05:02:31.974Z,2.50
2023-03-12T05:04:58.605Z,2.53
2023-03-12T05:07:25.138Z,2.45
2023-03-12T05:09:51.703Z,1.85
2023-03-12T05:12:18.761Z,2.00
2023-03-12T05:14:45.368Z,2.10
2023-03-12T05:17:11.939Z,1.92
2023-03-12T05:19:38.692Z,2.40
2023-03-12T05:22:05.356Z,2.22
2023-03-12T05:24:31.900Z,2.10
2023-03-12T05:26:58.478Z,2.63
2023-03-12T05:29:25.124Z,2.60
2023-03-12T05:31:51.731Z,2.53
2023-03-12T05:34:18.273Z,2.13
2023-03-12T05:36:45.412Z,2.65
2023-03-12T05:39:12.001Z,2.50
2023-03-12T05:41:39.494Z,2.45
2023-03-12T05:44:06.132Z,2.13
2023-03-12T05:46:32.732Z,2.78
2023-03-12T05:49:01.459Z,2.85
2023-03-12T05:51:28.072Z,2.40
2023-03-12T05:53:54.694Z,2.95
2023-03-12T05:56:21.577Z,2.60
2023-03-12T05:58:49.821Z,2.10
2023-03-12T06:01:23.446Z,2.90
2023-03-12T06:03:50.720Z,2.95
2023-03-12T06:06:18.158Z,2.40
2023-03-12T06:08:45.064Z,2.85
2023-03-12T06:11:12.103Z,2.25
2023-03-12T06:13:38.945Z,2.60
2023-03-12T06:16:14.760Z,2.60
2023-03-12T06:18:41.637Z,2.60
2023-03-12T06:21:19.579Z,2.25
2023-03-12T06:23:46.659Z,2.88
2023-03-12T06:26:14.401Z,1.95
2023-03-12T06:28:41.887Z,2.40
2023-03-12T06:31:09.275Z,2.45
2023-03-12T06:33:36.318Z,2.45
2023-03-12T06:36:05.334Z,2.22
2023-03-12T06:38:33.114Z,2.83
2023-03-12T06:41:05.410Z,3.85
2023-03-12T06:43:34.059Z,2.40
2023-03-12T06:46:01.648Z,3.08
2023-03-12T06:48:29.986Z,2.67
2023-03-12T06:50:56.792Z,2.40
2023-03-12T06:53:25.296Z,2.60
2023-03-12T06:55:52.222Z,2.50
2023-03-12T06:58:19.347Z,2.85
2023-03-12T07:00:45.866Z,2.80
2023-03-12T07:03:12.458Z,1.83
2023-03-12T07:05:39.317Z,2.45
2023-03-12T07:08:06.130Z,2.40
2023-03-12T07:10:32.829Z,2.38
2023-03-12T07:12:59.576Z,2.58
2023-03-12T07:15:26.240Z,2.70
2023-03-12T07:18:05.734Z,2.80
2023-03-12T07:20:33.412Z,2.42
2023-03-12T07:23:00.551Z,2.35
2023-03-12T07:25:27.228Z,2.42
2023-03-12T07:27:53.870Z,3.35
2023-03-12T07:30:20.403Z,3.05
2023-03-12T07:32:46.977Z,2.70
2023-03-12T07:35:13.590Z,2.50
2023-03-12T07:37:40.143Z,3.10
2023-03-12T07:40:07.497Z,3.45
2023-03-12T07:42:34.449Z,2.40
2023-03-12T07:45:01.138Z,2.63
2023-03-12T07:47:27.830Z,2.40
2023-03-12T07:49:54.629Z,2.53
2023-03-12T07:52:21.414Z,2.55
2023-03-12T07:54:48.068Z,3.03
2023-03-12T07:57:14.981Z,2.47
2023-03-12T07:59:41.653Z,3.13
2023-03-12T08:02:10.364Z,3.08
2023-03-12T08:04:37.118Z,2.55
2023-03-12T08:07:05.093Z,2.53
2023-03-12T08:09:33.278Z,2.55
2023-03-12T08:11:59.868Z,2.25
2023-03-12T08:14:26.806Z,2.30
2023-03-12T08:16:53.417Z,2.40
2023-03-12T08:19:20.177Z,2.83
2023-03-12T08:21:46.679Z,2.97
2023-03-12T08:24:13.181Z,2.20
2023-03-12T08:26:39.766Z,2.85
2023-03-12T08:29:06.327Z,2.55
2023-03-12T08:31:32.903Z,2.67
2023-03-12T08:33:59.514Z,2.35
2023-03-12T08:36:39.103Z,2.90
2023-03-12T08:39:06.538Z,3.22
2023-03-12T08:41:33.112Z,2.65
2023-03-12T08:43:59.662Z,2.38
2023-03-12T08:46:26.315Z,2.35
2023-03-12T08:48:52.940Z,2.55
2023-03-12T08:51:19.480Z,2.35
2023-03-12T08:53:46.021Z,2.40
2023-03-12T08:56:12.565Z,2.53
2023-03-12T08:58:39.104Z,3.10
2023-03-12T09:01:13.822Z,3.10
2023-03-12T09:03:41.539Z,2.30
2023-03-12T09:06:16.754Z,2.40
2023-03-12T09:08:44.451Z,2.15
2023-03-12T09:11:12.158Z,2.03
2023-03-12T09:13:58.742Z,2.37
2023-03-12T09:16:26.509Z,2.08
2023-03-12T09:18:53.182Z,2.47
2023-03-12T09:21:19.744Z,2.17
2023-03-12T09:23:47.285Z,1.88
2023-03-12T09:26:14.644Z,2.22
2023-03-12T09:28:42.525Z,6.70
2023-03-12T09:31:09.112Z,5.20
2023-03-12T09:33:36.117Z,3.08
2023-03-12T09:36:03.505Z,2.28
2023-03-12T09:38:31.907Z,2.50
2023-03-12T09:40:58.847Z,2.05
2023-03-12T09:43:40.276Z,2.53
2023-03-12T09:46:15.119Z,3.95
2023-03-12T09:48:42.259Z,1.90
2023-03-12T09:51:20.415Z,2.40
2023-03-12T09:53:57.326Z,1.65
2023-03-12T09:56:24.246Z,2.20
2023-03-12T09:58:54.642Z,2.67
2023-03-12T10:01:47.924Z,2.38
2023-03-12T10:04:56.620Z,1.90
2023-03-12T10:07:36.042Z,1.83
2023-03-12T10:10:17.971Z,2.00
2023-03-12T10:12:47.650Z,2.78
2023-03-12T10:15:32.323Z,3.40
2023-03-12T10:18:10.968Z,2.58
2023-03-12T10:20:58.934Z,1.50
2023-03-12T10:23:25.356Z,2.10
2023-03-12T10:26:02.569Z,2.00
2023-03-12T10:28:41.830Z,2.30
2023-03-12T10:31:18.661Z,2.33
2023-03-12T10:33:51.246Z,2.78
2023-03-12T10:36:21.210Z,2.08
2023-03-12T10:38:49.471Z,2.60
2023-03-12T10:41:19.686Z,1.90
2023-03-12T10:43:46.259Z,1.92
2023-03-12T10:46:34.042Z,2.03
2023-03-12T10:52:19.611Z,2.00
2023-03-12T10:54:49.127Z,1.95
2023-03-12T10:57:16.351Z,2.20
2023-03-12T10:59:45.948Z,2.08
2023-03-12T11:02:32.549Z,2.55
2023-03-12T11:05:01.050Z,2.45
2023-03-12T11:07:35.500Z,2.33
2023-03-12T11:10:08.052Z,2.60
2023-03-12T11:12:37.448Z,2.30
2023-03-12T11:15:43.178Z,2.38
2023-03-12T11:18:32.716Z,2.50
2023-03-12T11:21:08.530Z,1.92
2023-03-12T11:23:36.803Z,2.85
2023-03-12T11:26:16.545Z,2.47
2023-03-12T11:28:57.677Z,2.15
2023-03-12T11:32:03.538Z,2.05
2023-03-12T11:34:36.762Z,3.10
2023-03-12T11:37:11.999Z,2.03
2023-03-12T11:39:52.248Z,3.00
2023-03-12T11:42:52.053Z,1.90
2023-03-12T11:45:36.849Z,2.58
2023-03-12T11:48:45.401Z,2.15
2023-03-12T11:51:30.661Z,2.70
2023-03-12T11:54:02.324Z,2.88
2023-03-12T11:56:44.165Z,2.38
2023-03-12T11:59:42.454Z,1.92
2023-03-12T12:03:00.315Z,2.72
2023-03-12T12:05:36.540Z,2.08
2023-03-12T12:08:12.149Z,2.50
2023-03-12T12:10:38.708Z,2.70
2023-03-12T12:13:40.454Z,2.10
2023-03-12T12:16:29.266Z,2.50
2023-03-12T12:19:21.655Z,2.90
2023-03-12T12:22:33.060Z,2.50
2023-03-12T12:25:16.359Z,3.05
2023-03-12T12:28:03.269Z,2.75
2023-03-12T12:30:36.021Z,2.85
2023-03-12T12:33:08.184Z,2.35
2023-03-12T12:35:43.336Z,2.40
2023-03-12T12:38:09.839Z,1.90
2023-03-12T12:40:55.555Z,2.15
2023-03-12T12:43:35.297Z,2.83
2023-03-12T12:46:09.750Z,2.40
2023-03-12T12:49:13.679Z,3.10
2023-03-12T12:51:56.002Z,2.60
2023-03-12T12:54:38.023Z,2.47
2023-03-12T12:57:30.796Z,3.00
2023-03-12T13:00:19.218Z,2.60
2023-03-12T13:02:48.083Z,2.00
2023-03-12T13:05:26.659Z,3.38
2023-03-12T13:10:34.793Z,3.35
2023-03-12T13:13:27.393Z,2.58
2023-03-12T13:16:34.026Z,3.03
2023-03-12T13:19:21.361Z,2.72
2023-03-12T13:22:12.369Z,3.13
2023-03-12T13:24:54.147Z,2.63
2023-03-12T13:27:37.050Z,3.03
2023-03-12T13:30:31.120Z,2.47
2023-03-12T13:32:57.730Z,2.85
2023-03-12T13:35:52.283Z,3.72
2023-03-12T13:38:36.852Z,2.90
2023-03-12T13:41:08.119Z,2.92
2023-03-12T13:43:37.660Z,3.47
2023-03-12T13:46:16.571Z,3.10
2023-03-12T13:48:49.011Z,2.88
2023-03-12T13:51:17.278Z,2.72
2023-03-12T13:53:49.671Z,3.17
2023-03-12T13:56:25.366Z,3.53
2023-03-12T13:59:16.194Z,2.60
2023-03-12T14:01:48.544Z,2.88
2023-03-12T14:04:23.060Z,3.75
2023-03-12T14:07:05.845Z,3.22
2023-03-12T14:09:35.392Z,2.88
2023-03-12T14:12:18.438Z,3.08
2023-03-12T14:15:14.141Z,3.60
2023-03-12T14:17:43.392Z,1.92
2023-03-12T14:20:17.001Z,4.18
2023-03-12T14:22:48.634Z,2.65
2023-03-12T14:25:38.505Z,3.22
2023-03-12T14:28:21.019Z,3.35
2023-03-12T14:30:53.755Z,3.10
2023-03-12T14:33:22.116Z,3.38
2023-03-12T14:35:57.821Z,3.17
2023-03-12T14:38:35.540Z,2.97
2023-03-12T14:41:20.024Z,3.55
2023-03-12T14:43:51.861Z,3.50
2023-03-12T14:46:23.854Z,5.05
2023-03-12T14:48:52.898Z,5.15
2023-03-12T14:51:25.486Z,3.92
2023-03-12T14:53:53.694Z,2.80
2023-03-12T14:56:30.612Z,3.42
2023-03-12T14:58:59.967Z,4.20
2023-03-12T15:01:31.964Z,2.47
2023-03-12T15:04:16.959Z,2.42
2023-03-12T15:06:45.604Z,2.70
2023-03-12T15:09:18.068Z,3.40
2023-03-12T15:11:50.642Z,2.78
2023-03-12T15:14:17.349Z,3.15
2023-03-12T15:17:01.086Z,2.70
2023-03-12T15:19:33.735Z,2.85
2023-03-12T15:22:00.768Z,3.05
2023-03-12T15:24:30.464Z,2.97
2023-03-12T15:26:56.983Z,2.92
2023-03-12T15:29:28.635Z,4.15
2023-03-12T15:32:00.566Z,3.03
2023-03-12T15:34:38.690Z,2.35
2023-03-12T15:37:29.678Z,3.22
2023-03-12T15:39:57.021Z,2.90
2023-03-12T15:42:25.972Z,2.70
2023-03-12T15:44:56.941Z,3.42
2023-03-12T15:47:39.524Z,3.00
2023-03-12T15:50:36.844Z,2.47
2023-03-12T15:53:07.696Z,2.22
2023-03-12T15:55:35.965Z,2.72
2023-03-12T15:58:03.247Z,2.15
2023-03-12T16:00:45.277Z,2.53
2023-03-12T16:03:18.456Z,2.33
2023-03-12T16:05:46.210Z,3.88
2023-03-12T16:08:21.031Z,2.08
2023-03-12T16:10:49.633Z,2.35
2023-03-12T16:13:19.932Z,3.63
2023-03-12T16:15:47.932Z,2.63
2023-03-12T16:18:17.186Z,2.67
2023-03-12T16:20:44.296Z,2.33
2023-03-12T16:23:11.255Z,2.67
2023-03-12T16:25:38.159Z,3.17
2023-03-12T16:28:06.482Z,2.08
2023-03-12T16:30:36.194Z,2.25
2023-03-12T16:33:08.768Z,2.40
2023-03-12T16:35:35.978Z,1.90
2023-03-12T16:38:03.560Z,2.00
2023-03-12T16:40:36.185Z,2.42
2023-03-12T16:43:05.849Z,3.22
2023-03-12T16:45:35.924Z,1.77
2023-03-12T16:48:06.176Z,2.03
2023-03-12T16:50:32.768Z,3.03
2023-03-12T16:52:59.789Z,2.60
2023-03-12T16:55:29.742Z,2.15
2023-03-12T16:58:00.408Z,2.33
2023-03-12T17:00:29.694Z,2.22
2023-03-12T17:02:59.703Z,1.70
2023-03-12T17:05:28.653Z,2.15
2023-03-12T17:07:56.366Z,2.50
2023-03-12T17:10:23.773Z,2.40
2023-03-12T17:12:50.630Z,3.47
2023-03-12T17:15:19.434Z,4.10
2023-03-12T17:20:18.989Z,2.65
2023-03-12T17:22:46.013Z,2.45
2023-03-12T17:25:29.193Z,2.65
2023-03-12T17:27:59.200Z,2.95
2023-03-12T17:30:28.542Z,3.28
2023-03-12T17:33:11.523Z,4.57
2023-03-12T17:35:39.924Z,10.52
2023-03-12T17:38:07.025Z,3.90
2023-03-12T17:40:35.525Z,4.75
2023-03-12T17:43:02.022Z,6.03
2023-03-12T17:45:28.683Z,5.70
2023-03-12T17:47:55.270Z,4.97
2023-03-12T17:50:21.837Z,3.90
2023-03-12T17:52:48.401Z,3.92
2023-03-12T17:55:15.007Z,2.78
2023-03-12T17:57:42.680Z,2.92
2023-03-12T18:00:12.720Z,3.33
2023-03-12T18:02:40.822Z,3.38
2023-03-12T18:05:08.900Z,3.42
2023-03-12T18:07:35.766Z,3.35
2023-03-12T18:10:02.518Z,4.53
2023-03-12T18:12:29.073Z,3.53
2023-03-12T18:14:55.667Z,3.40
2023-03-12T18:17:22.490Z,4.72
2023-03-12T18:19:49.015Z,4.82
2023-03-12T18:22:15.623Z,4.05
2023-03-12T18:24:42.555Z,3.85
2023-03-12T18:27:09.172Z,4.57
2023-03-12T18:29:36.873Z,4.55
2023-03-12T18:32:05.245Z,3.25
2023-03-12T18:34:31.827Z,3.33
2023-03-12T18:36:58.584Z,4.07
2023-03-12T18:39:25.188Z,4.18
2023-03-12T18:41:54.272Z,3.85
2023-03-12T18:44:21.018Z,3.17
2023-03-12T18:46:50.848Z,3.72
2023-03-12T18:49:17.761Z,4.80
2023-03-12T18:54:28.099Z,3.90
2023-03-12T18:56:54.670Z,3.10
2023-03-12T18:59:21.555Z,3.60
2023-03-12T19:01:48.258Z,4.55
2023-03-12T19:04:19.329Z,5.43
2023-03-12T19:06:51.308Z,4.22
2023-03-12T19:09:18.741Z,3.88
2023-03-12T19:11:47.744Z,6.03
2023-03-12T19:14:14.606Z,4.90
2023-03-12T19:16:41.297Z,5.90
2023-03-12T19:19:08.877Z,5.95
2023-03-12T19:21:35.478Z,5.78
2023-03-12T19:24:02.303Z,5.03
2023-03-12T19:26:28.935Z,5.05
2023-03-12T19:28:55.516Z,4.43
2023-03-12T19:31:22.101Z,4.80
2023-03-12T19:33:48.864Z,4.65
2023-03-12T19:36:15.440Z,5.85
2023-03-12T19:38:42.031Z,4.85
2023-03-12T19:41:09.215Z,5.00
2023-03-12T19:43:37.264Z,6.03
2023-03-12T19:46:04.440Z,5.55
2023-03-12T19:48:31.199Z,4.70
2023-03-12T19:50:57.783Z,3.95
2023-03-12T19:53:24.856Z,4.70
2023-03-12T19:55:51.819Z,5.22
2023-03-12T19:58:18.449Z,6.28
2023-03-12T20:00:45.239Z,5.35
2023-03-12T20:03:11.851Z,5.55
2023-03-12T20:05:38.640Z,4.78
2023-03-12T20:08:06.327Z,5.22
2023-03-12T20:10:32.868Z,5.45
2023-03-12T20:12:59.432Z,5.38
2023-03-12T20:15:26.472Z,5.35
2023-03-12T20:17:54.802Z,5.25
2023-03-12T20:20:21.479Z,6.88
2023-03-12T20:22:47.998Z,6.40
2023-03-12T20:25:14.586Z,6.65
2023-03-12T20:27:41.100Z,5.78
2023-03-12T20:30:08.620Z,5.22
2023-03-12T20:32:35.262Z,5.15
2023-03-12T20:35:01.858Z,5.18
2023-03-12T20:37:28.612Z,5.20
2023-03-12T20:39:55.213Z,4.38
2023-03-12T20:42:21.745Z,4.60
2023-03-12T20:44:48.354Z,4.90
2023-03-12T20:47:15.104Z,4.25
2023-03-12T20:49:41.644Z,4.68
2023-03-12T20:52:08.228Z,4.53
2023-03-12T20:54:34.825Z,4.03
2023-03-12T20:57:01.420Z,4.50
2023-03-12T20:59:27.960Z,4.85
2023-03-12T21:01:54.529Z,5.00
2023-03-12T21:04:21.087Z,4.82
2023-03-12T21:06:47.731Z,5.25
2023-03-12T21:09:15.065Z,5.43
2023-03-12T21:11:41.866Z,4.60
2023-03-12T21:14:08.567Z,4.30
2023-03-12T21:16:35.898Z,3.78
2023-03-12T21:19:02.532Z,3.90
2023-03-12T21:21:29.414Z,3.58
2023-03-12T21:23:56.054Z,4.60
2023-03-12T21:26:22.638Z,4.53
2023-03-12T21:28:49.184Z,4.63
2023-03-12T21:31:17.258Z,4.28
2023-03-12T21:33:43.969Z,4.20
2023-03-12T21:36:12.832Z,3.38
2023-03-12T21:38:41.060Z,4.38
2023-03-12T21:41:09.628Z,4.13
2023-03-12T21:43:36.651Z,4.95
2023-03-12T21:46:09.315Z,3.97
2023-03-12T21:48:36.630Z,4.93
2023-03-12T21:51:11.486Z,4.13
2023-03-12T21:53:38.513Z,4.50
2023-03-12T21:56:07.796Z,4.28
2023-03-12T21:58:35.446Z,4.82
2023-03-12T22:01:13.516Z,5.07
2023-03-12T22:03:41.669Z,5.10
2023-03-12T22:06:10.113Z,9.13
2023-03-12T22:08:37.623Z,5.47
2023-03-12T22:11:05.348Z,5.25
2023-03-12T22:13:32.202Z,4.50
2023-03-12T22:16:05.945Z,4.70
2023-03-12T22:18:32.991Z,4.65
2023-03-12T22:21:01.629Z,4.32
2023-03-12T22:23:28.215Z,3.45
2023-03-12T22:25:55.163Z,3.97
2023-03-12T22:28:23.769Z,5.40
2023-03-12T22:30:59.942Z,3.95
2023-03-12T22:33:27.816Z,4.72
2023-03-12T22:35:54.715Z,4.57
2023-03-12T22:38:22.132Z,4.38
2023-03-12T22:40:49.000Z,4.45
2023-03-12T22:43:16.489Z,4.63
2023-03-12T22:45:43.822Z,4.68
2023-03-12T22:48:10.479Z,4.20
2023-03-12T22:50:37.041Z,4.25
2023-03-12T22:53:03.643Z,5.40
2023-03-12T22:55:30.171Z,5.28
2023-03-12T22:57:56.736Z,5.50
2023-03-12T23:00:23.417Z,5.43
2023-03-12T23:02:50.328Z,4.85
2023-03-12T23:05:17.206Z,5.43
2023-03-12T23:07:43.955Z,5.72
2023-03-12T23:10:10.899Z,4.63
2023-03-12T23:12:37.686Z,4.88
2023-03-12T23:15:38.754Z,5.28
2023-03-12T23:18:07.269Z,4.40
2023-03-12T23:20:33.851Z,11.10
2023-03-12T23:23:00.401Z,4.53
2023-03-12T23:25:26.979Z,10.40
2023-03-12T23:27:53.669Z,4.68
2023-03-12T23:30:20.273Z,4.65
2023-03-12T23:32:46.888Z,4.20
2023-03-12T23:35:13.784Z,4.13
2023-03-12T23:37:40.529Z,3.60
2023-03-12T23:40:10.397Z,4.20
2023-03-12T23:42:37.119Z,4.60
2023-03-12T23:45:04.085Z,3.55
2023-03-12T23:47:30.597Z,3.67
2023-03-12T23:49:57.150Z,4.65
2023-03-12T23:52:26.352Z,5.25
2023-03-12T23:55:13.644Z,4.32
2023-03-12T23:57:40.171Z,4.22
